createdAt,value
2018-12-05T00:00:09.511Z,1.44
2018-12-05T00:00:21.963Z,1.44
2018-12-05T00:00:34.358Z,1.44
2018-12-05T00:00:46.750Z,1.44
2018-12-05T00:00:59.133Z,1.44
2018-12-05T00:01:11.520Z,1.44
2018-12-05T00:01:23.886Z,1.44
2018-12-05T00:01:36.278Z,1.44
2018-12-05T00:01:48.644Z,1.44
2018-12-05T00:02:01.024Z,1.44
2018-12-05T00:02:13.450Z,1.44
2018-12-05T00:02:25.831Z,1.44
2018-12-05T00:02:38.222Z,1.44
2018-12-05T00:02:50.614Z,1.44
2018-12-05T00:03:02.991Z,1.44
2018-12-05T00:03:15.472Z,1.44
2018-12-05T00:03:27.843Z,1.44
2018-12-05T00:03:40.274Z,1.44
2018-12-05T00:03:52.639Z,1.44
2018-12-05T00:04:05.014Z,1.44
2018-12-05T00:04:17.405Z,1.44
2018-12-05T00:04:29.793Z,1.44
2018-12-05T00:04:42.275Z,1.44
2018-12-05T00:04:54.685Z,1.44
2018-12-05T00:05:07.249Z,1.44
2018-12-05T00:05:19.729Z,1.44
2018-12-05T00:05:32.098Z,1.44
2018-12-05T00:05:44.494Z,1.44
2018-12-05T00:05:56.941Z,1.44
2018-12-05T00:06:09.353Z,1.44
2018-12-05T00:06:21.738Z,1.44
2018-12-05T00:06:34.100Z,1.44
2018-12-05T00:06:46.483Z,1.44
2018-12-05T00:06:58.855Z,1.44
2018-12-05T00:07:11.206Z,1.44
2018-12-05T00:07:23.563Z,1.44
2018-12-05T00:07:35.946Z,1.44
2018-12-05T00:07:48.406Z,1.44
2018-12-05T00:08:00.785Z,1.44
2018-12-05T00:08:13.211Z,1.27
2018-12-05T00:08:25.618Z,1.27
2018-12-05T00:08:37.989Z,1.27
2018-12-05T00:08:50.377Z,1.27
2018-12-05T00:09:02.778Z,1.27
2018-12-05T00:09:15.158Z,1.27
2018-12-05T00:09:27.514Z,1.27
2018-12-05T00:09:39.897Z,1.27
2018-12-05T00:09:52.283Z,1.27
2018-12-05T00:10:04.649Z,1.27
2018-12-05T00:10:17.029Z,1.27
2018-12-05T00:10:29.413Z,1.27
2018-12-05T00:10:41.802Z,1.27
2018-12-05T00:10:54.190Z,1.27
2018-12-05T00:11:06.586Z,1.27
2018-12-05T00:11:18.969Z,1.27
2018-12-05T00:11:31.360Z,1.27
2018-12-05T00:11:45.432Z,1.27
2018-12-05T00:11:57.838Z,1.27
2018-12-05T00:12:10.240Z,1.27
2018-12-05T00:12:22.656Z,1.27
2018-12-05T00:12:35.046Z,1.27
2018-12-05T00:12:47.438Z,1.27
2018-12-05T00:12:59.825Z,1.27
2018-12-05T00:13:12.199Z,1.27
2018-12-05T00:13:24.578Z,1.27
2018-12-05T00:13:37.062Z,1.27
2018-12-05T00:13:49.441Z,1.27
2018-12-05T00:14:01.837Z,1.27
2018-12-05T00:14:14.279Z,1.27
2018-12-05T00:14:26.654Z,1.27
2018-12-05T00:14:39.058Z,1.27
2018-12-05T00:14:51.575Z,1.27
2018-12-05T00:15:04.009Z,1.27
2018-12-05T00:15:16.392Z,1.27
2018-12-05T00:15:28.782Z,1.27
2018-12-05T00:15:41.186Z,1.27
2018-12-05T00:15:53.580Z,1.27
2018-12-05T00:16:05.945Z,1.27
2018-12-05T00:16:18.325Z,1.27
2018-12-05T00:16:30.686Z,1.27
2018-12-05T00:16:43.068Z,1.27
2018-12-05T00:16:55.464Z,1.27
2018-12-05T00:17:07.887Z,1.27
2018-12-05T00:17:20.257Z,1.27
2018-12-05T00:17:33.594Z,1.27
2018-12-05T00:17:46.136Z,1.27
2018-12-05T00:17:58.519Z,1.27
2018-12-05T00:18:11.050Z,1.29
2018-12-05T00:18:23.449Z,1.29
2018-12-05T00:18:35.821Z,1.29
2018-12-05T00:18:48.234Z,1.29
2018-12-05T00:19:00.625Z,1.29
2018-12-05T00:19:13.004Z,1.29
2018-12-05T00:19:25.380Z,1.29
2018-12-05T00:19:37.769Z,1.29
2018-12-05T00:19:50.149Z,1.29
2018-12-05T00:20:02.563Z,1.29
2018-12-05T00:20:14.935Z,1.29
2018-12-05T00:20:27.393Z,1.29
2018-12-05T00:20:39.898Z,1.29
2018-12-05T00:20:52.362Z,1.29
2018-12-05T00:21:04.740Z,1.29
2018-12-05T00:21:17.114Z,1.29
2018-12-05T00:21:29.563Z,1.29
2018-12-05T00:21:41.942Z,1.29
2018-12-05T00:21:54.328Z,1.29
2018-12-05T00:22:06.730Z,1.29
2018-12-05T00:22:19.114Z,1.29
2018-12-05T00:22:31.491Z,1.29
2018-12-05T00:22:44.098Z,1.29
2018-12-05T00:22:56.494Z,1.29
2018-12-05T00:23:08.856Z,1.29
2018-12-05T00:23:21.237Z,1.29
2018-12-05T00:23:33.630Z,1.29
2018-12-05T00:23:46.002Z,1.29
2018-12-05T00:23:58.385Z,1.29
2018-12-05T00:24:12.336Z,1.29
2018-12-05T00:24:24.728Z,1.29
2018-12-05T00:24:37.197Z,1.29
2018-12-05T00:24:49.587Z,1.29
2018-12-05T00:25:02.164Z,1.29
2018-12-05T00:25:14.801Z,1.29
2018-12-05T00:25:27.409Z,1.29
2018-12-05T00:25:39.786Z,1.29
2018-12-05T00:25:52.158Z,1.29
2018-12-05T00:26:04.532Z,1.29
2018-12-05T00:26:17.158Z,1.29
2018-12-05T00:26:29.533Z,1.29
2018-12-05T00:26:41.936Z,1.29
2018-12-05T00:26:54.455Z,1.29
2018-12-05T00:27:06.857Z,1.29
2018-12-05T00:27:19.256Z,1.29
2018-12-05T00:27:31.642Z,1.29
2018-12-05T00:27:44.202Z,1.29
2018-12-05T00:27:56.583Z,1.29
2018-12-05T00:28:09.262Z,1.29
2018-12-05T00:28:21.651Z,1.96
2018-12-05T00:28:34.038Z,1.96
2018-12-05T00:28:46.432Z,1.96
2018-12-05T00:28:58.837Z,1.96
2018-12-05T00:29:11.221Z,1.96
2018-12-05T00:29:23.599Z,1.96
2018-12-05T00:29:36.132Z,1.96
2018-12-05T00:29:48.532Z,1.96
2018-12-05T00:30:00.923Z,1.96
2018-12-05T00:30:13.379Z,1.96
2018-12-05T00:30:25.883Z,1.96
2018-12-05T00:30:38.395Z,1.96
2018-12-05T00:30:50.779Z,1.96
2018-12-05T00:31:03.145Z,1.96
2018-12-05T00:31:15.525Z,1.96
2018-12-05T00:31:27.900Z,1.96
2018-12-05T00:31:40.294Z,1.96
2018-12-05T00:31:52.700Z,1.96
2018-12-05T00:32:05.076Z,1.96
2018-12-05T00:32:17.440Z,1.96
2018-12-05T00:32:29.818Z,1.96
2018-12-05T00:32:42.287Z,1.96
2018-12-05T00:32:54.665Z,1.96
2018-12-05T00:33:07.028Z,1.96
2018-12-05T00:33:19.409Z,1.96
2018-12-05T00:33:31.777Z,1.96
2018-12-05T00:33:44.151Z,1.96
2018-12-05T00:33:56.524Z,1.96
2018-12-05T00:34:08.901Z,1.96
2018-12-05T00:34:21.265Z,1.96
2018-12-05T00:34:33.628Z,1.96
2018-12-05T00:34:46.003Z,1.96
2018-12-05T00:34:58.370Z,1.96
2018-12-05T00:35:11.037Z,1.96
2018-12-05T00:35:23.477Z,1.96
2018-12-05T00:35:35.877Z,1.96
2018-12-05T00:35:48.255Z,1.96
2018-12-05T00:36:00.636Z,1.96
2018-12-05T00:36:13.012Z,1.96
2018-12-05T00:36:25.582Z,1.96
2018-12-05T00:36:37.941Z,1.96
2018-12-05T00:36:50.320Z,1.96
2018-12-05T00:37:02.697Z,1.96
2018-12-05T00:37:15.061Z,1.96
2018-12-05T00:37:27.435Z,1.96
2018-12-05T00:37:39.811Z,1.96
2018-12-05T00:37:52.187Z,1.96
2018-12-05T00:38:04.549Z,1.96
2018-12-05T00:38:16.916Z,1.3
2018-12-05T00:38:29.297Z,1.3
2018-12-05T00:38:41.801Z,1.3
2018-12-05T00:38:54.171Z,1.3
2018-12-05T00:39:06.532Z,1.3
2018-12-05T00:39:18.902Z,1.3
2018-12-05T00:39:31.294Z,1.3
2018-12-05T00:39:43.673Z,1.3
2018-12-05T00:39:57.292Z,1.3
2018-12-05T00:40:09.718Z,1.3
2018-12-05T00:40:22.114Z,1.3
2018-12-05T00:40:34.581Z,1.3
2018-12-05T00:40:47.144Z,1.3
2018-12-05T00:40:59.673Z,1.3
2018-12-05T00:41:12.203Z,1.3
2018-12-05T00:41:24.591Z,1.3
2018-12-05T00:41:36.967Z,1.3
2018-12-05T00:41:49.385Z,1.3
2018-12-05T00:42:01.803Z,1.3
2018-12-05T00:42:14.177Z,1.3
2018-12-05T00:42:26.550Z,1.3
2018-12-05T00:42:38.931Z,1.3
2018-12-05T00:42:51.335Z,1.3
2018-12-05T00:43:03.723Z,1.3
2018-12-05T00:43:16.095Z,1.3
2018-12-05T00:43:28.482Z,1.3
2018-12-05T00:43:40.846Z,1.3
2018-12-05T00:43:53.271Z,1.3
2018-12-05T00:44:05.658Z,1.3
2018-12-05T00:44:18.030Z,1.3
2018-12-05T00:44:30.400Z,1.3
2018-12-05T00:44:42.785Z,1.3
2018-12-05T00:44:55.411Z,1.3
2018-12-05T00:45:07.790Z,1.3
2018-12-05T00:45:20.182Z,1.3
2018-12-05T00:45:32.896Z,1.3
2018-12-05T00:45:45.279Z,1.3
2018-12-05T00:45:57.646Z,1.3
2018-12-05T00:46:10.043Z,1.3
2018-12-05T00:46:22.433Z,1.3
2018-12-05T00:46:34.816Z,1.3
2018-12-05T00:46:47.195Z,1.3
2018-12-05T00:46:59.579Z,1.3
2018-12-05T00:47:12.043Z,1.3
2018-12-05T00:47:24.409Z,1.3
2018-12-05T00:47:36.787Z,1.3
2018-12-05T00:47:49.157Z,1.3
2018-12-05T00:48:01.622Z,1.3
2018-12-05T00:48:13.996Z,1.35
2018-12-05T00:48:26.376Z,1.35
2018-12-05T00:48:38.754Z,1.35
2018-12-05T00:48:51.239Z,1.35
2018-12-05T00:49:03.616Z,1.35
2018-12-05T00:49:16.048Z,1.35
2018-12-05T00:49:28.439Z,1.35
2018-12-05T00:49:40.848Z,1.35
2018-12-05T00:49:53.204Z,1.35
2018-12-05T00:50:05.814Z,1.35
2018-12-05T00:50:18.186Z,1.35
2018-12-05T00:50:30.570Z,1.35
2018-12-05T00:50:42.971Z,1.35
2018-12-05T00:50:55.386Z,1.35
2018-12-05T00:51:07.907Z,1.35
2018-12-05T00:51:20.279Z,1.35
2018-12-05T00:51:32.643Z,1.35
2018-12-05T00:51:45.158Z,1.35
2018-12-05T00:51:57.528Z,1.35
2018-12-05T00:52:09.892Z,1.35
2018-12-05T00:52:22.257Z,1.35
2018-12-05T00:52:34.638Z,1.35
2018-12-05T00:52:47.017Z,1.35
2018-12-05T00:52:59.380Z,1.35
2018-12-05T00:53:11.767Z,1.35
2018-12-05T00:53:24.176Z,1.35
2018-12-05T00:53:36.547Z,1.35
2018-12-05T00:53:48.928Z,1.35
2018-12-05T00:54:01.375Z,1.35
2018-12-05T00:54:13.763Z,1.35
2018-12-05T00:54:26.145Z,1.35
2018-12-05T00:54:38.535Z,1.35
2018-12-05T00:54:52.742Z,1.35
2018-12-05T00:55:05.161Z,1.35
2018-12-05T00:55:17.545Z,1.35
2018-12-05T00:55:29.939Z,1.35
2018-12-05T00:55:42.451Z,1.35
2018-12-05T00:55:54.850Z,1.35
2018-12-05T00:56:07.228Z,1.35
2018-12-05T00:56:19.606Z,1.35
2018-12-05T00:56:32.041Z,1.35
2018-12-05T00:56:44.480Z,1.35
2018-12-05T00:56:56.857Z,1.35
2018-12-05T00:57:09.230Z,1.35
2018-12-05T00:57:21.593Z,1.35
2018-12-05T00:57:33.968Z,1.35
2018-12-05T00:57:46.363Z,1.35
2018-12-05T00:57:58.772Z,1.35
2018-12-05T00:58:11.183Z,1.35
2018-12-05T00:58:23.627Z,1.8
2018-12-05T00:58:36.038Z,1.8
2018-12-05T00:58:48.421Z,1.8
2018-12-05T00:59:00.818Z,1.8
2018-12-05T00:59:13.193Z,1.8
2018-12-05T00:59:25.668Z,1.8
2018-12-05T00:59:38.033Z,1.8
2018-12-05T00:59:50.405Z,1.8
2018-12-05T01:00:02.929Z,1.8
2018-12-05T01:00:15.307Z,1.8
2018-12-05T01:00:27.676Z,1.8
2018-12-05T01:00:40.138Z,1.8
2018-12-05T01:00:52.556Z,1.8
2018-12-05T01:01:04.949Z,1.8
2018-12-05T01:01:17.351Z,1.8
2018-12-05T01:01:29.807Z,1.8
2018-12-05T01:01:42.183Z,1.8
2018-12-05T01:01:54.565Z,1.8
2018-12-05T01:02:06.938Z,1.8
2018-12-05T01:02:19.316Z,1.8
2018-12-05T01:02:31.707Z,1.8
2018-12-05T01:02:44.071Z,1.8
2018-12-05T01:02:56.447Z,1.8
2018-12-05T01:03:08.846Z,1.8
2018-12-05T01:03:21.209Z,1.8
2018-12-05T01:03:33.670Z,1.8
2018-12-05T01:03:46.050Z,1.8
2018-12-05T01:03:58.419Z,1.8
2018-12-05T01:04:10.787Z,1.8
2018-12-05T01:04:23.180Z,1.8
2018-12-05T01:04:35.547Z,1.8
2018-12-05T01:04:47.921Z,1.8
2018-12-05T01:05:00.574Z,1.8
2018-12-05T01:05:14.699Z,1.8
2018-12-05T01:05:27.080Z,1.8
2018-12-05T01:05:39.610Z,1.8
2018-12-05T01:05:51.986Z,1.8
2018-12-05T01:06:04.352Z,1.8
2018-12-05T01:06:16.720Z,1.8
2018-12-05T01:06:29.107Z,1.8
2018-12-05T01:06:41.475Z,1.8
2018-12-05T01:06:53.849Z,1.8
2018-12-05T01:07:06.209Z,1.8
2018-12-05T01:07:18.597Z,1.8
2018-12-05T01:07:30.969Z,1.8
2018-12-05T01:07:43.329Z,1.8
2018-12-05T01:07:55.711Z,1.8
2018-12-05T01:08:08.078Z,1.8
2018-12-05T01:08:20.457Z,1.73
2018-12-05T01:08:32.831Z,1.73
2018-12-05T01:08:45.206Z,1.73
2018-12-05T01:08:57.573Z,1.73
2018-12-05T01:09:09.934Z,1.73
2018-12-05T01:09:22.312Z,1.73
2018-12-05T01:09:34.768Z,1.73
2018-12-05T01:09:47.157Z,1.73
2018-12-05T01:09:59.550Z,1.73
2018-12-05T01:10:11.932Z,1.73
2018-12-05T01:10:24.313Z,1.73
2018-12-05T01:10:36.701Z,1.73
2018-12-05T01:10:49.106Z,1.73
2018-12-05T01:11:01.611Z,1.73
2018-12-05T01:11:14.023Z,1.73
2018-12-05T01:11:26.407Z,1.73
2018-12-05T01:11:38.795Z,1.73
2018-12-05T01:11:51.187Z,1.73
2018-12-05T01:12:03.570Z,1.73
2018-12-05T01:12:15.943Z,1.73
2018-12-05T01:12:28.368Z,1.73
2018-12-05T01:12:40.744Z,1.73
2018-12-05T01:12:53.146Z,1.73
2018-12-05T01:13:05.604Z,1.73
2018-12-05T01:13:18.068Z,1.73
2018-12-05T01:13:30.631Z,1.73
2018-12-05T01:13:43.021Z,1.73
2018-12-05T01:13:55.418Z,1.73
2018-12-05T01:14:07.819Z,1.73
2018-12-05T01:14:20.189Z,1.73
2018-12-05T01:14:32.564Z,1.73
2018-12-05T01:14:45.015Z,1.73
2018-12-05T01:14:59.035Z,1.73
2018-12-05T01:15:11.548Z,1.73
2018-12-05T01:15:23.930Z,1.73
2018-12-05T01:15:36.533Z,1.73
2018-12-05T01:15:49.015Z,1.73
2018-12-05T01:16:01.421Z,1.73
2018-12-05T01:16:13.804Z,1.73
2018-12-05T01:16:26.210Z,1.73
2018-12-05T01:16:38.625Z,1.73
2018-12-05T01:16:50.985Z,1.73
2018-12-05T01:17:03.366Z,1.73
2018-12-05T01:17:15.815Z,1.73
2018-12-05T01:17:28.259Z,1.73
2018-12-05T01:17:40.630Z,1.73
2018-12-05T01:17:53.028Z,1.73
2018-12-05T01:18:05.390Z,1.73
2018-12-05T01:18:17.768Z,1.45
2018-12-05T01:18:30.140Z,1.45
2018-12-05T01:18:42.531Z,1.45
2018-12-05T01:18:54.934Z,1.45
2018-12-05T01:19:07.321Z,1.45
2018-12-05T01:19:19.775Z,1.45
2018-12-05T01:19:32.238Z,1.45
2018-12-05T01:19:44.643Z,1.45
2018-12-05T01:19:57.022Z,1.45
2018-12-05T01:20:09.402Z,1.45
2018-12-05T01:20:21.858Z,1.45
2018-12-05T01:20:34.373Z,1.45
2018-12-05T01:20:46.826Z,1.45
2018-12-05T01:20:59.204Z,1.45
2018-12-05T01:21:11.590Z,1.45
2018-12-05T01:21:23.977Z,1.45
2018-12-05T01:21:36.358Z,1.45
2018-12-05T01:21:48.747Z,1.45
2018-12-05T01:22:01.152Z,1.45
2018-12-05T01:22:13.524Z,1.45
2018-12-05T01:22:25.888Z,1.45
2018-12-05T01:22:38.252Z,1.45
2018-12-05T01:22:50.688Z,1.45
2018-12-05T01:23:03.062Z,1.45
2018-12-05T01:23:15.433Z,1.45
2018-12-05T01:23:27.896Z,1.45
2018-12-05T01:23:40.261Z,1.45
2018-12-05T01:23:52.610Z,1.45
2018-12-05T01:24:04.981Z,1.45
2018-12-05T01:24:17.341Z,1.45
2018-12-05T01:24:29.724Z,1.45
2018-12-05T01:24:42.084Z,1.45
2018-12-05T01:24:54.457Z,1.45
2018-12-05T01:25:07.017Z,1.45
2018-12-05T01:25:19.490Z,1.45
2018-12-05T01:25:32.054Z,1.45
2018-12-05T01:25:44.485Z,1.45
2018-12-05T01:25:56.840Z,1.45
2018-12-05T01:26:09.333Z,1.45
2018-12-05T01:26:21.765Z,1.45
2018-12-05T01:26:34.160Z,1.45
2018-12-05T01:26:46.705Z,1.45
2018-12-05T01:26:59.069Z,1.45
2018-12-05T01:27:11.436Z,1.45
2018-12-05T01:27:23.817Z,1.45
2018-12-05T01:27:36.202Z,1.45
2018-12-05T01:27:48.673Z,1.45
2018-12-05T01:28:01.096Z,1.45
2018-12-05T01:28:13.712Z,1.45
2018-12-05T01:28:26.099Z,1.71
2018-12-05T01:28:38.493Z,1.71
2018-12-05T01:28:50.875Z,1.71
2018-12-05T01:29:03.227Z,1.71
2018-12-05T01:29:15.612Z,1.71
2018-12-05T01:29:28.109Z,1.71
2018-12-05T01:29:40.492Z,1.71
2018-12-05T01:29:52.949Z,1.71
2018-12-05T01:30:05.344Z,1.71
2018-12-05T01:30:17.711Z,1.71
2018-12-05T01:30:30.226Z,1.71
2018-12-05T01:30:42.665Z,1.71
2018-12-05T01:30:55.043Z,1.71
2018-12-05T01:31:07.418Z,1.71
2018-12-05T01:31:19.789Z,1.71
2018-12-05T01:31:32.199Z,1.71
2018-12-05T01:31:44.567Z,1.71
2018-12-05T01:31:56.946Z,1.71
2018-12-05T01:32:09.340Z,1.71
2018-12-05T01:32:21.770Z,1.71
2018-12-05T01:32:34.131Z,1.71
2018-12-05T01:32:46.601Z,1.71
2018-12-05T01:32:59.002Z,1.71
2018-12-05T01:33:11.469Z,1.71
2018-12-05T01:33:25.497Z,1.71
2018-12-05T01:33:37.882Z,1.71
2018-12-05T01:33:50.256Z,1.71
2018-12-05T01:34:02.637Z,1.71
2018-12-05T01:34:15.030Z,1.71
2018-12-05T01:34:27.416Z,1.71
2018-12-05T01:34:39.828Z,1.71
2018-12-05T01:34:52.199Z,1.71
2018-12-05T01:35:04.580Z,1.71
2018-12-05T01:35:16.972Z,1.71
2018-12-05T01:35:29.438Z,1.71
2018-12-05T01:35:41.818Z,1.71
2018-12-05T01:35:54.206Z,1.71
2018-12-05T01:36:06.562Z,1.71
2018-12-05T01:36:18.943Z,1.71
2018-12-05T01:36:31.473Z,1.71
2018-12-05T01:36:43.851Z,1.71
2018-12-05T01:36:56.242Z,1.71
2018-12-05T01:37:08.683Z,1.71
2018-12-05T01:37:21.063Z,1.71
2018-12-05T01:37:33.434Z,1.71
2018-12-05T01:37:45.795Z,1.71
2018-12-05T01:37:58.187Z,1.71
2018-12-05T01:38:10.571Z,1.71
2018-12-05T01:38:22.964Z,1.3
2018-12-05T01:38:35.502Z,1.3
2018-12-05T01:38:47.909Z,1.3
2018-12-05T01:39:00.324Z,1.3
2018-12-05T01:39:12.774Z,1.3
2018-12-05T01:39:25.149Z,1.3
2018-12-05T01:39:37.533Z,1.3
2018-12-05T01:39:50.006Z,1.3
2018-12-05T01:40:02.416Z,1.3
2018-12-05T01:40:14.783Z,1.3
2018-12-05T01:40:27.167Z,1.3
2018-12-05T01:40:39.546Z,1.3
2018-12-05T01:40:52.184Z,1.3
2018-12-05T01:41:04.700Z,1.3
2018-12-05T01:41:17.369Z,1.3
2018-12-05T01:41:29.747Z,1.3
2018-12-05T01:41:42.124Z,1.3
2018-12-05T01:41:54.518Z,1.3
2018-12-05T01:42:06.916Z,1.3
2018-12-05T01:42:19.293Z,1.3
2018-12-05T01:42:31.650Z,1.3
2018-12-05T01:42:44.027Z,1.3
2018-12-05T01:42:56.397Z,1.3
2018-12-05T01:43:08.775Z,1.3
2018-12-05T01:43:21.171Z,1.3
2018-12-05T01:43:33.536Z,1.3
2018-12-05T01:43:45.928Z,1.3
2018-12-05T01:43:58.319Z,1.3
2018-12-05T01:44:10.712Z,1.3
2018-12-05T01:44:23.103Z,1.3
2018-12-05T01:44:35.462Z,1.3
2018-12-05T01:44:47.829Z,1.3
2018-12-05T01:45:00.294Z,1.3
2018-12-05T01:45:12.683Z,1.3
2018-12-05T01:45:25.100Z,1.3
2018-12-05T01:45:37.490Z,1.3
2018-12-05T01:45:49.864Z,1.3
2018-12-05T01:46:02.406Z,1.3
2018-12-05T01:46:14.787Z,1.3
2018-12-05T01:46:27.144Z,1.3
2018-12-05T01:46:39.522Z,1.3
2018-12-05T01:46:51.922Z,1.3
2018-12-05T01:47:04.305Z,1.3
2018-12-05T01:47:16.832Z,1.3
2018-12-05T01:47:29.200Z,1.3
2018-12-05T01:47:41.564Z,1.3
2018-12-05T01:47:53.931Z,1.3
2018-12-05T01:48:06.324Z,1.3
2018-12-05T01:48:18.764Z,1.7
2018-12-05T01:48:31.146Z,1.7
2018-12-05T01:48:43.813Z,1.7
2018-12-05T01:48:56.320Z,1.7
2018-12-05T01:49:08.695Z,1.7
2018-12-05T01:49:21.070Z,1.7
2018-12-05T01:49:33.427Z,1.7
2018-12-05T01:49:45.856Z,1.7
2018-12-05T01:49:58.331Z,1.7
2018-12-05T01:50:10.700Z,1.7
2018-12-05T01:50:23.073Z,1.7
2018-12-05T01:50:35.453Z,1.7
2018-12-05T01:50:47.825Z,1.7
2018-12-05T01:51:00.210Z,1.7
2018-12-05T01:51:12.578Z,1.7
2018-12-05T01:51:24.937Z,1.7
2018-12-05T01:51:37.293Z,1.7
2018-12-05T01:51:49.829Z,1.7
2018-12-05T01:52:02.217Z,1.7
2018-12-05T01:52:14.597Z,1.7
2018-12-05T01:52:26.985Z,1.7
2018-12-05T01:52:39.463Z,1.7
2018-12-05T01:52:51.860Z,1.7
2018-12-05T01:53:04.245Z,1.7
2018-12-05T01:53:16.639Z,1.7
2018-12-05T01:53:29.011Z,1.7
2018-12-05T01:53:41.484Z,1.7
2018-12-05T01:53:53.873Z,1.7
2018-12-05T01:54:06.243Z,1.7
2018-12-05T01:54:18.621Z,1.7
2018-12-05T01:54:30.998Z,1.7
2018-12-05T01:54:43.476Z,1.7
2018-12-05T01:54:55.885Z,1.7
2018-12-05T01:55:08.266Z,1.7
2018-12-05T01:55:20.643Z,1.7
2018-12-05T01:55:33.011Z,1.7
2018-12-05T01:55:45.619Z,1.7
2018-12-05T01:55:57.988Z,1.7
2018-12-05T01:56:10.359Z,1.7
2018-12-05T01:56:22.815Z,1.7
2018-12-05T01:56:35.190Z,1.7
2018-12-05T01:56:47.556Z,1.7
2018-12-05T01:57:00.011Z,1.7
2018-12-05T01:57:12.391Z,1.7
2018-12-05T01:57:24.770Z,1.7
2018-12-05T01:57:37.158Z,1.7
2018-12-05T01:57:49.753Z,1.7
2018-12-05T01:58:02.146Z,1.7
2018-12-05T01:58:14.655Z,1.7
2018-12-05T01:58:27.033Z,1.68
2018-12-05T01:58:39.406Z,1.68
2018-12-05T01:58:51.937Z,1.68
2018-12-05T01:59:04.327Z,1.68
2018-12-05T01:59:16.702Z,1.68
2018-12-05T01:59:29.087Z,1.68
2018-12-05T01:59:41.456Z,1.68
2018-12-05T01:59:53.854Z,1.68
2018-12-05T02:00:06.240Z,1.68
2018-12-05T02:00:18.639Z,1.68
2018-12-05T02:00:31.039Z,1.68
2018-12-05T02:00:43.428Z,1.68
2018-12-05T02:00:55.868Z,1.68
2018-12-05T02:01:08.256Z,1.68
2018-12-05T02:01:20.634Z,1.68
2018-12-05T02:01:33.012Z,1.68
2018-12-05T02:01:45.397Z,1.68
2018-12-05T02:01:57.775Z,1.68
2018-12-05T02:02:10.147Z,1.68
2018-12-05T02:02:22.535Z,1.68
2018-12-05T02:02:34.929Z,1.68
2018-12-05T02:02:47.390Z,1.68
2018-12-05T02:02:59.769Z,1.68
2018-12-05T02:03:12.138Z,1.68
2018-12-05T02:03:24.583Z,1.68
2018-12-05T02:03:36.940Z,1.68
2018-12-05T02:03:49.354Z,1.68
2018-12-05T02:04:01.716Z,1.68
2018-12-05T02:04:14.140Z,1.68
2018-12-05T02:04:26.511Z,1.68
2018-12-05T02:04:38.897Z,1.68
2018-12-05T02:04:51.280Z,1.68
2018-12-05T02:05:03.643Z,1.68
2018-12-05T02:05:16.026Z,1.68
2018-12-05T02:05:28.385Z,1.68
2018-12-05T02:05:40.772Z,1.68
2018-12-05T02:05:53.231Z,1.68
2018-12-05T02:06:05.681Z,1.68
2018-12-05T02:06:19.692Z,1.68
2018-12-05T02:06:32.457Z,1.68
2018-12-05T02:06:44.839Z,1.68
2018-12-05T02:06:57.210Z,1.68
2018-12-05T02:07:09.586Z,1.68
2018-12-05T02:07:21.968Z,1.68
2018-12-05T02:07:34.340Z,1.68
2018-12-05T02:07:46.737Z,1.68
2018-12-05T02:07:59.110Z,1.68
2018-12-05T02:08:11.483Z,1.68
2018-12-05T02:08:23.870Z,1.31
2018-12-05T02:08:36.237Z,1.31
2018-12-05T02:08:48.610Z,1.31
2018-12-05T02:09:00.998Z,1.31
2018-12-05T02:09:13.376Z,1.31
2018-12-05T02:09:25.761Z,1.31
2018-12-05T02:09:38.158Z,1.31
2018-12-05T02:09:50.534Z,1.31
2018-12-05T02:10:02.921Z,1.31
2018-12-05T02:10:15.304Z,1.31
2018-12-05T02:10:27.675Z,1.31
2018-12-05T02:10:40.035Z,1.31
2018-12-05T02:10:52.397Z,1.31
2018-12-05T02:11:04.771Z,1.31
2018-12-05T02:11:17.158Z,1.31
2018-12-05T02:11:29.584Z,1.31
2018-12-05T02:11:41.948Z,1.31
2018-12-05T02:11:54.317Z,1.31
2018-12-05T02:12:06.722Z,1.31
2018-12-05T02:12:19.123Z,1.31
2018-12-05T02:12:31.567Z,1.31
2018-12-05T02:12:43.972Z,1.31
2018-12-05T02:12:56.347Z,1.31
2018-12-05T02:13:08.738Z,1.31
2018-12-05T02:13:21.389Z,1.31
2018-12-05T02:13:34.905Z,1.31
2018-12-05T02:13:47.279Z,1.31
2018-12-05T02:13:59.645Z,1.31
2018-12-05T02:14:12.011Z,1.31
2018-12-05T02:14:24.400Z,1.31
2018-12-05T02:14:36.779Z,1.31
2018-12-05T02:14:49.276Z,1.31
2018-12-05T02:15:01.665Z,1.31
2018-12-05T02:15:14.044Z,1.31
2018-12-05T02:15:26.412Z,1.31
2018-12-05T02:15:38.806Z,1.31
2018-12-05T02:15:51.199Z,1.31
2018-12-05T02:16:03.587Z,1.31
2018-12-05T02:16:15.967Z,1.31
2018-12-05T02:16:28.340Z,1.31
2018-12-05T02:16:40.723Z,1.31
2018-12-05T02:16:53.116Z,1.31
2018-12-05T02:17:05.496Z,1.31
2018-12-05T02:17:17.961Z,1.31
2018-12-05T02:17:30.345Z,1.31
2018-12-05T02:17:42.716Z,1.31
2018-12-05T02:17:55.080Z,1.31
2018-12-05T02:18:07.455Z,1.31
2018-12-05T02:18:19.865Z,1.23
2018-12-05T02:18:32.240Z,1.23
2018-12-05T02:18:44.653Z,1.23
2018-12-05T02:18:57.031Z,1.23
2018-12-05T02:19:09.408Z,1.23
2018-12-05T02:19:21.795Z,1.23
2018-12-05T02:19:34.172Z,1.23
2018-12-05T02:19:46.555Z,1.23
2018-12-05T02:19:58.951Z,1.23
2018-12-05T02:20:11.304Z,1.23
2018-12-05T02:20:23.749Z,1.23
2018-12-05T02:20:36.323Z,1.23
2018-12-05T02:20:48.727Z,1.23
2018-12-05T02:21:01.112Z,1.23
2018-12-05T02:21:13.500Z,1.23
2018-12-05T02:21:25.870Z,1.23
2018-12-05T02:21:38.258Z,1.23
2018-12-05T02:21:50.668Z,1.23
2018-12-05T02:22:03.038Z,1.23
2018-12-05T02:22:15.447Z,1.23
2018-12-05T02:22:27.829Z,1.23
2018-12-05T02:22:40.224Z,1.23
2018-12-05T02:22:52.611Z,1.23
2018-12-05T02:23:04.968Z,1.23
2018-12-05T02:23:17.353Z,1.23
2018-12-05T02:23:29.789Z,1.23
2018-12-05T02:23:42.185Z,1.23
2018-12-05T02:23:54.560Z,1.23
2018-12-05T02:24:07.409Z,1.23
2018-12-05T02:24:19.789Z,1.23
2018-12-05T02:24:32.186Z,1.23
2018-12-05T02:24:44.550Z,1.23
2018-12-05T02:24:56.934Z,1.23
2018-12-05T02:25:09.316Z,1.23
2018-12-05T02:25:21.813Z,1.23
2018-12-05T02:25:34.474Z,1.23
2018-12-05T02:25:46.930Z,1.23
2018-12-05T02:25:59.284Z,1.23
2018-12-05T02:26:11.816Z,1.23
2018-12-05T02:26:24.245Z,1.23
2018-12-05T02:26:36.758Z,1.23
2018-12-05T02:26:49.268Z,1.23
2018-12-05T02:27:01.688Z,1.23
2018-12-05T02:27:14.052Z,1.23
2018-12-05T02:27:26.496Z,1.23
2018-12-05T02:27:38.996Z,1.23
2018-12-05T02:27:51.362Z,1.23
2018-12-05T02:28:03.723Z,1.23
2018-12-05T02:28:16.318Z,1.23
2018-12-05T02:28:28.693Z,1.64
2018-12-05T02:28:41.106Z,1.64
2018-12-05T02:28:53.477Z,1.64
2018-12-05T02:29:05.851Z,1.64
2018-12-05T02:29:18.206Z,1.64
2018-12-05T02:29:30.708Z,1.64
2018-12-05T02:29:43.072Z,1.64
2018-12-05T02:29:55.445Z,1.64
2018-12-05T02:30:07.868Z,1.64
2018-12-05T02:30:20.367Z,1.64
2018-12-05T02:30:32.986Z,1.64
2018-12-05T02:30:45.383Z,1.64
2018-12-05T02:30:57.843Z,1.64
2018-12-05T02:31:10.270Z,1.64
2018-12-05T02:31:22.677Z,1.64
2018-12-05T02:31:35.049Z,1.64
2018-12-05T02:31:47.435Z,1.64
2018-12-05T02:31:59.857Z,1.64
2018-12-05T02:32:12.261Z,1.64
2018-12-05T02:32:24.737Z,1.64
2018-12-05T02:32:37.153Z,1.64
2018-12-05T02:32:49.626Z,1.64
2018-12-05T02:33:02.016Z,1.64
2018-12-05T02:33:14.414Z,1.64
2018-12-05T02:33:26.850Z,1.64
2018-12-05T02:33:39.262Z,1.64
2018-12-05T02:33:51.666Z,1.64
2018-12-05T02:34:04.075Z,1.64
2018-12-05T02:34:16.519Z,1.64
2018-12-05T02:34:28.900Z,1.64
2018-12-05T02:34:41.307Z,1.64
2018-12-05T02:34:53.729Z,1.64
2018-12-05T02:35:06.217Z,1.64
2018-12-05T02:35:18.602Z,1.64
2018-12-05T02:35:30.984Z,1.64
2018-12-05T02:35:43.378Z,1.64
2018-12-05T02:35:55.838Z,1.64
2018-12-05T02:36:08.242Z,1.64
2018-12-05T02:36:20.628Z,1.64
2018-12-05T02:36:33.287Z,1.64
2018-12-05T02:36:45.653Z,1.64
2018-12-05T02:36:58.046Z,1.64
2018-12-05T02:37:10.442Z,1.64
2018-12-05T02:37:22.834Z,1.64
2018-12-05T02:37:35.231Z,1.64
2018-12-05T02:37:47.595Z,1.64
2018-12-05T02:37:59.977Z,1.64
2018-12-05T02:38:12.381Z,1.64
2018-12-05T02:38:24.755Z,1.81
2018-12-05T02:38:37.166Z,1.81
2018-12-05T02:38:49.701Z,1.81
2018-12-05T02:39:02.075Z,1.81
2018-12-05T02:39:14.481Z,1.81
2018-12-05T02:39:26.883Z,1.81
2018-12-05T02:39:39.317Z,1.81
2018-12-05T02:39:51.723Z,1.81
2018-12-05T02:40:04.108Z,1.81
2018-12-05T02:40:16.595Z,1.81
2018-12-05T02:40:29.053Z,1.81
2018-12-05T02:40:41.437Z,1.81
2018-12-05T02:40:53.928Z,1.81
2018-12-05T02:41:06.463Z,1.81
2018-12-05T02:41:19.037Z,1.81
2018-12-05T02:41:31.420Z,1.81
2018-12-05T02:41:44.016Z,1.81
2018-12-05T02:41:56.385Z,1.81
2018-12-05T02:42:08.794Z,1.81
2018-12-05T02:42:21.210Z,1.81
2018-12-05T02:42:33.601Z,1.81
2018-12-05T02:42:46.012Z,1.81
2018-12-05T02:42:58.482Z,1.81
2018-12-05T02:43:10.894Z,1.81
2018-12-05T02:43:23.282Z,1.81
2018-12-05T02:43:35.696Z,1.81
2018-12-05T02:43:48.074Z,1.81
2018-12-05T02:44:00.467Z,1.81
2018-12-05T02:44:12.863Z,1.81
2018-12-05T02:44:25.280Z,1.81
2018-12-05T02:44:37.654Z,1.81
2018-12-05T02:44:50.055Z,1.81
2018-12-05T02:45:04.334Z,1.81
2018-12-05T02:45:16.730Z,1.81
2018-12-05T02:45:29.120Z,1.81
2018-12-05T02:45:41.517Z,1.81
2018-12-05T02:45:53.931Z,1.81
2018-12-05T02:46:06.345Z,1.81
2018-12-05T02:46:18.753Z,1.81
2018-12-05T02:46:31.173Z,1.81
2018-12-05T02:46:43.576Z,1.81